Time;durP1;ratioP1;P1;durP2;ratioP2;P2;SDS_P1;SDS_P2;PMS_P1;PMS_P2;Temp;Humidity;BMP_temperature;BMP_pressure;BME280_temperature;BME280_humidity;BME280_pressure;Samples;Min_cycle;Max_cycle;Signal;HPM_P1;HPM_P2
2021/07/15 00:01:53;;;;;;;12.18;6.25;;;;;;;;;;5034934;28;20048;-81
2021/07/15 00:04:19;;;;;;;14.45;6.38;;;;;;;;;;5052286;28;20384;-78
2021/07/15 00:06:45;;;;;;;11.85;6.43;;;;;;;;;;5050786;28;20041;-78
2021/07/15 00:09:12;;;;;;;8.85;6.32;;;;;;;;;;5052236;28;20437;-80
2021/07/15 00:11:39;;;;;;;15.07;6.50;;;;;;;;;;5052597;28;20387;-78
2021/07/15 00:14:06;;;;;;;9.40;6.05;;;;;;;;;;5052221;28;20021;-77
2021/07/15 00:16:32;;;;;;;14.40;6.00;;;;;;;;;;5051934;28;20033;-78
2021/07/15 00:18:58;;;;;;;13.18;6.43;;;;;;;;;;5052310;28;20029;-78
2021/07/15 00:21:25;;;;;;;8.20;5.80;;;;;;;;;;5051142;28;20025;-78
2021/07/15 00:23:51;;;;;;;9.82;6.15;;;;;;;;;;5052459;28;20127;-77
2021/07/15 00:26:18;;;;;;;12.70;6.30;;;;;;;;;;5051914;28;20119;-78
2021/07/15 00:28:44;;;;;;;14.23;5.57;;;;;;;;;;5052390;28;20017;-75
2021/07/15 00:31:11;;;;;;;11.55;5.30;;;;;;;;;;5052289;28;20057;-77
2021/07/15 00:33:37;;;;;;;7.90;5.13;;;;;;;;;;5050428;28;20020;-76
2021/07/15 00:36:03;;;;;;;11.57;4.97;;;;;;;;;;5051740;28;20037;-77
2021/07/15 00:38:29;;;;;;;9.90;5.35;;;;;;;;;;5052012;28;20029;-77
2021/07/15 00:40:55;;;;;;;9.10;5.40;;;;;;;;;;5052131;28;20031;-76
2021/07/15 00:43:22;;;;;;;10.88;5.60;;;;;;;;;;5051946;28;20029;-76
2021/07/15 00:45:48;;;;;;;12.23;5.72;;;;;;;;;;5051137;28;20033;-78
2021/07/15 00:48:14;;;;;;;9.95;5.25;;;;;;;;;;5051827;28;20086;-76
2021/07/15 00:50:40;;;;;;;11.95;5.38;;;;;;;;;;5051954;28;20493;-77
2021/07/15 00:53:08;;;;;;;11.60;6.07;;;;;;;;;;5050829;28;20106;-77
2021/07/15 00:55:37;;;;;;;10.45;5.10;;;;;;;;;;5051689;28;20021;-76
2021/07/15 00:58:03;;;;;;;8.63;5.00;;;;;;;;;;5051228;28;20375;-78
2021/07/15 01:00:29;;;;;;;10.37;5.20;;;;;;;;;;5051405;28;20061;-77
2021/07/15 01:02:56;;;;;;;9.25;5.18;;;;;;;;;;5051453;28;20078;-77
2021/07/15 01:05:28;;;;;;;8.48;5.20;;;;;;;;;;5051849;28;20475;-77
2021/07/15 01:07:54;;;;;;;11.85;5.18;;;;;;;;;;5051017;28;20087;-77
2021/07/15 01:10:21;;;;;;;6.53;4.55;;;;;;;;;;5050006;28;20491;-76
2021/07/15 01:12:57;;;;;;;7.35;4.95;;;;;;;;;;5051210;28;20017;-77
2021/07/15 01:15:23;;;;;;;7.88;4.50;;;;;;;;;;5051125;28;20025;-76
2021/07/15 01:17:56;;;;;;;9.15;4.63;;;;;;;;;;5050780;28;20459;-75
2021/07/15 01:20:45;;;;;;;6.22;4.55;;;;;;;;;;5050800;28;20048;-77
2021/07/15 01:23:11;;;;;;;11.98;5.25;;;;;;;;;;5051146;28;20025;-76
2021/07/15 01:25:40;;;;;;;7.47;4.78;;;;;;;;;;5049655;28;20443;-76
2021/07/15 01:28:06;;;;;;;7.75;4.45;;;;;;;;;;5050612;28;20094;-77
2021/07/15 01:30:32;;;;;;;8.23;4.55;;;;;;;;;;5050618;28;20017;-77
2021/07/15 01:33:03;;;;;;;7.15;4.80;;;;;;;;;;5050949;28;20483;-77
2021/07/15 01:35:32;;;;;;;6.20;4.85;;;;;;;;;;5051076;28;20220;-75
2021/07/15 01:38:00;;;;;;;10.15;6.47;;;;;;;;;;5050637;28;20557;-77
2021/07/15 01:40:29;;;;;;;9.93;4.88;;;;;;;;;;5051271;28;20031;-76
2021/07/15 01:42:58;;;;;;;11.30;4.90;;;;;;;;;;5050390;28;20033;-76
2021/07/15 01:45:25;;;;;;;8.25;5.35;;;;;;;;;;5050530;28;20106;-76
2021/07/15 01:47:52;;;;;;;8.80;5.38;;;;;;;;;;5050295;28;20498;-76
2021/07/15 01:50:18;;;;;;;9.93;5.22;;;;;;;;;;5050924;28;20032;-77
2021/07/15 01:52:44;;;;;;;8.50;5.13;;;;;;;;;;5050641;28;20025;-77
2021/07/15 01:55:10;;;;;;;8.82;5.20;;;;;;;;;;5049969;28;20471;-77
2021/07/15 01:57:38;;;;;;;10.48;4.32;;;;;;;;;;5050263;28;20033;-77
2021/07/15 02:00:03;;;;;;;;;;;;;;;;;;5051111;28;20036;-76
2021/07/15 02:02:30;;;;;;;9.38;4.60;;;;;;;;;;5050376;28;19921;-77
2021/07/15 02:04:57;;;;;;;9.55;5.05;;;;;;;;;;5049982;28;20044;-76
2021/07/15 02:07:23;;;;;;;8.15;4.30;;;;;;;;;;5050069;28;20556;-77
2021/07/15 02:09:50;;;;;;;7.40;4.68;;;;;;;;;;5050166;28;20035;-76
2021/07/15 02:12:17;;;;;;;5.82;4.43;;;;;;;;;;5050375;28;20087;-77
2021/07/15 02:14:43;;;;;;;13.50;5.32;;;;;;;;;;5050418;28;20075;-76
2021/07/15 02:17:10;;;;;;;6.30;4.68;;;;;;;;;;5048554;28;20453;-77
2021/07/15 02:19:37;;;;;;;6.73;4.17;;;;;;;;;;5050254;28;20111;-76
2021/07/15 02:22:03;;;;;;;6.90;4.77;;;;;;;;;;5050132;28;20025;-77
2021/07/15 02:24:31;;;;;;;7.07;4.38;;;;;;;;;;5049959;28;20383;-77
2021/07/15 02:26:57;;;;;;;8.98;4.80;;;;;;;;;;5049674;28;20112;-76
2021/07/15 02:29:24;;;;;;;6.82;4.32;;;;;;;;;;5050056;28;20060;-76
2021/07/15 02:31:54;;;;;;;7.93;5.10;;;;;;;;;;5049748;28;20395;-76
2021/07/15 02:34:31;;;;;;;10.05;4.85;;;;;;;;;;5050653;28;20025;-77
2021/07/15 02:36:59;;;;;;;6.03;4.63;;;;;;;;;;5049912;28;20460;-76
2021/07/15 02:39:25;;;;;;;9.75;4.50;;;;;;;;;;5050006;28;20056;-76
2021/07/15 02:41:51;;;;;;;5.82;4.30;;;;;;;;;;5049997;28;20055;-77
2021/07/15 02:44:17;;;;;;;4.88;4.07;;;;;;;;;;5049718;28;20471;-77
2021/07/15 02:46:43;;;;;;;5.25;3.92;;;;;;;;;;5049798;28;20041;-77
2021/07/15 02:49:09;;;;;;;8.75;4.20;;;;;;;;;;5049604;28;20046;-77
2021/07/15 02:51:35;;;;;;;8.63;4.82;;;;;;;;;;5049887;28;20677;-76
2021/07/15 02:54:02;;;;;;;5.45;4.55;;;;;;;;;;5049460;28;20036;-76
2021/07/15 02:56:28;;;;;;;7.53;5.10;;;;;;;;;;5048302;28;20028;-76
2021/07/15 02:58:54;;;;;;;7.50;4.75;;;;;;;;;;5049660;28;20104;-77
2021/07/15 03:01:23;;;;;;;6.93;5.00;;;;;;;;;;5049785;28;20074;-76
2021/07/15 03:04:00;;;;;;;6.40;4.50;;;;;;;;;;5049543;28;20045;-76
2021/07/15 03:06:28;;;;;;;6.88;4.97;;;;;;;;;;5049223;28;20044;-75
2021/07/15 03:08:59;;;;;;;7.18;5.38;;;;;;;;;;5049501;28;20375;-76
2021/07/15 03:11:30;;;;;;;13.07;4.82;;;;;;;;;;5049591;28;20510;-76
2021/07/15 03:13:56;;;;;;;5.25;4.25;;;;;;;;;;5049729;28;20029;-75
2021/07/15 03:16:23;;;;;;;7.10;4.40;;;;;;;;;;5050338;28;20024;-77
2021/07/15 03:18:49;;;;;;;9.95;4.55;;;;;;;;;;5053245;28;20503;-77
2021/07/15 03:21:16;;;;;;;8.00;4.18;;;;;;;;;;5053479;28;20021;-77
2021/07/15 03:23:42;;;;;;;;;;;;;;;;;;5053922;28;20510;-77
2021/07/15 03:26:09;;;;;;;6.20;4.28;;;;;;;;;;5052656;28;19909;-78
2021/07/15 03:28:37;;;;;;;7.90;3.97;;;;;;;;;;5051800;28;20377;-77
2021/07/15 03:31:05;;;;;;;11.45;4.13;;;;;;;;;;5053945;28;20095;-77
2021/07/15 03:33:32;;;;;;;6.25;3.90;;;;;;;;;;5053354;28;20158;-75
2021/07/15 03:35:59;;;;;;;6.80;4.18;;;;;;;;;;5052873;28;20103;-77
2021/07/15 03:38:25;;;;;;;7.73;4.03;;;;;;;;;;5053030;28;20430;-76
2021/07/15 03:40:51;;;;;;;5.95;4.00;;;;;;;;;;5053172;28;20270;-77
2021/07/15 03:43:18;;;;;;;7.60;4.75;;;;;;;;;;5053066;28;20045;-76
2021/07/15 03:45:49;;;;;;;8.55;4.13;;;;;;;;;;5053042;28;20447;-76
2021/07/15 03:48:16;;;;;;;6.60;3.67;;;;;;;;;;5051374;28;20106;-77
2021/07/15 03:50:42;;;;;;;9.43;3.70;;;;;;;;;;5052515;28;20414;-76
2021/07/15 03:53:09;;;;;;;8.95;4.05;;;;;;;;;;5052536;28;20441;-76
2021/07/15 03:55:36;;;;;;;6.25;4.18;;;;;;;;;;5052842;28;20278;-76
2021/07/15 03:58:05;;;;;;;5.50;3.80;;;;;;;;;;5053144;28;20025;-76
2021/07/15 04:00:31;;;;;;;4.20;3.78;;;;;;;;;;5052061;28;20083;-76
2021/07/15 04:02:59;;;;;;;6.80;4.57;;;;;;;;;;5051096;28;20052;-76
2021/07/15 04:05:27;;;;;;;7.35;4.00;;;;;;;;;;5051087;28;20430;-76
2021/07/15 04:07:54;;;;;;;7.03;4.40;;;;;;;;;;5051268;28;20053;-76
2021/07/15 04:10:21;;;;;;;10.68;4.47;;;;;;;;;;5050839;28;20033;-76
2021/07/15 04:12:47;;;;;;;8.95;4.50;;;;;;;;;;5051468;28;20033;-76
2021/07/15 04:15:15;;;;;;;6.03;4.18;;;;;;;;;;5051129;28;20094;-77
2021/07/15 04:17:41;;;;;;;9.85;3.75;;;;;;;;;;5052368;28;20032;-76
2021/07/15 04:20:09;;;;;;;6.43;3.95;;;;;;;;;;5051570;28;20037;-77
2021/07/15 04:22:35;;;;;;;;;;;;;;;;;;5052833;28;20510;-77
2021/07/15 04:25:01;;;;;;;7.18;3.78;;;;;;;;;;5052457;28;19918;-76
2021/07/15 04:27:27;;;;;;;20.42;8.13;;;;;;;;;;5050159;28;20041;-76
2021/07/15 04:29:59;;;;;;;7.70;4.57;;;;;;;;;;5051289;28;20450;-77
2021/07/15 04:32:30;;;;;;;6.93;3.97;;;;;;;;;;5050653;28;20064;-76
2021/07/15 04:34:58;;;;;;;5.70;3.65;;;;;;;;;;5051763;28;20104;-76
2021/07/15 04:37:24;;;;;;;5.10;3.45;;;;;;;;;;5052183;28;20029;-77
2021/07/15 04:39:50;;;;;;;4.25;3.38;;;;;;;;;;5050350;28;20037;-76
2021/07/15 04:42:17;;;;;;;7.00;4.00;;;;;;;;;;5052040;28;20538;-77
2021/07/15 04:44:45;;;;;;;5.30;3.90;;;;;;;;;;5051920;28;20028;-76
2021/07/15 04:47:11;;;;;;;;;;;;;;;;;;5051993;28;20286;-76
2021/07/15 04:49:37;;;;;;;7.70;3.92;;;;;;;;;;5051548;28;19975;-77
2021/07/15 04:52:03;;;;;;;7.82;4.03;;;;;;;;;;5051834;28;20026;-76
2021/07/15 04:54:30;;;;;;;7.53;3.70;;;;;;;;;;5050351;28;20331;-76
2021/07/15 04:56:56;;;;;;;7.47;4.10;;;;;;;;;;5050267;28;20112;-77
2021/07/15 04:59:23;;;;;;;8.60;4.05;;;;;;;;;;5051057;28;20132;-77
2021/07/15 05:01:49;;;;;;;7.15;4.13;;;;;;;;;;5051317;28;20052;-77
2021/07/15 05:04:15;;;;;;;7.45;3.75;;;;;;;;;;5051705;28;20100;-77
2021/07/15 05:06:41;;;;;;;6.30;3.83;;;;;;;;;;5051572;28;20029;-76
2021/07/15 05:09:07;;;;;;;5.85;3.60;;;;;;;;;;5050883;28;20055;-77
2021/07/15 05:11:34;;;;;;;5.68;3.60;;;;;;;;;;5051043;28;20025;-77
2021/07/15 05:14:02;;;;;;;7.30;3.83;;;;;;;;;;5051685;28;20107;-77
2021/07/15 05:16:28;;;;;;;6.32;3.78;;;;;;;;;;5049782;28;20467;-77
2021/07/15 05:18:54;;;;;;;6.82;3.17;;;;;;;;;;5051352;28;20032;-78
2021/07/15 05:21:20;;;;;;;8.75;3.58;;;;;;;;;;5050590;28;20041;-77
2021/07/15 05:23:46;;;;;;;6.57;3.50;;;;;;;;;;5051037;28;20086;-77
2021/07/15 05:26:12;;;;;;;7.03;3.90;;;;;;;;;;5051135;28;20037;-76
2021/07/15 05:28:38;;;;;;;4.32;3.28;;;;;;;;;;5051122;28;20025;-76
2021/07/15 05:31:04;;;;;;;7.35;3.30;;;;;;;;;;5050728;28;20040;-77
2021/07/15 05:33:30;;;;;;;5.63;3.38;;;;;;;;;;5050987;28;20037;-76
2021/07/15 05:35:56;;;;;;;7.45;3.55;;;;;;;;;;5050471;28;20032;-77
2021/07/15 05:38:22;;;;;;;4.85;3.60;;;;;;;;;;5050916;28;20468;-77
2021/07/15 05:40:49;;;;;;;7.15;3.60;;;;;;;;;;5049968;28;20048;-77
2021/07/15 05:43:15;;;;;;;4.77;3.57;;;;;;;;;;5050844;28;20021;-77
2021/07/15 05:45:41;;;;;;;5.05;3.40;;;;;;;;;;5050709;28;20387;-77
2021/07/15 05:48:07;;;;;;;5.50;3.55;;;;;;;;;;5050410;28;20035;-76
2021/07/15 05:50:33;;;;;;;4.85;3.30;;;;;;;;;;5050324;28;20120;-77
2021/07/15 05:52:59;;;;;;;7.82;3.25;;;;;;;;;;5050544;28;20235;-77
2021/07/15 05:55:25;;;;;;;4.57;3.40;;;;;;;;;;5050601;28;20114;-75
2021/07/15 05:57:51;;;;;;;5.55;2.80;;;;;;;;;;5050731;28;20029;-76
2021/07/15 06:00:17;;;;;;;6.07;3.40;;;;;;;;;;5048540;28;20601;-77
2021/07/15 06:02:43;;;;;;;4.72;3.17;;;;;;;;;;5050263;28;20053;-77
2021/07/15 06:05:09;;;;;;;4.05;3.10;;;;;;;;;;5050449;28;20487;-77
2021/07/15 06:07:36;;;;;;;6.13;3.10;;;;;;;;;;5050448;28;20112;-77
2021/07/15 06:10:03;;;;;;;4.25;3.30;;;;;;;;;;5050181;28;20406;-77
2021/07/15 06:12:29;;;;;;;3.22;2.88;;;;;;;;;;5050259;28;20535;-77
2021/07/15 06:14:55;;;;;;;7.90;5.15;;;;;;;;;;5050002;28;20159;-77
2021/07/15 06:17:22;;;;;;;4.75;3.75;;;;;;;;;;5050136;28;20489;-77
2021/07/15 06:19:48;;;;;;;5.53;3.20;;;;;;;;;;5050020;28;20021;-75
2021/07/15 06:22:14;;;;;;;4.60;3.08;;;;;;;;;;5049951;28;20036;-77
2021/07/15 06:24:40;;;;;;;5.40;2.80;;;;;;;;;;5050112;28;20033;-77
2021/07/15 06:27:06;;;;;;;4.25;2.72;;;;;;;;;;5049681;28;20036;-76
2021/07/15 06:29:32;;;;;;;3.40;2.60;;;;;;;;;;5050214;28;20021;-75
2021/07/15 06:31:58;;;;;;;5.40;3.28;;;;;;;;;;5049878;28;20041;-77
2021/07/15 06:34:24;;;;;;;3.60;3.00;;;;;;;;;;5049869;28;20472;-76
2021/07/15 06:36:51;;;;;;;6.00;2.97;;;;;;;;;;5050035;28;20032;-77
2021/07/15 06:39:17;;;;;;;3.78;2.92;;;;;;;;;;5050113;28;20021;-76
2021/07/15 06:41:43;;;;;;;7.10;2.90;;;;;;;;;;5049352;28;20047;-77
2021/07/15 06:44:11;;;;;;;7.10;2.92;;;;;;;;;;5048499;28;20017;-77
2021/07/15 06:46:38;;;;;;;5.03;2.75;;;;;;;;;;5049889;28;20090;-77
2021/07/15 06:49:04;;;;;;;5.95;2.70;;;;;;;;;;5049821;28;20055;-76
2021/07/15 06:51:30;;;;;;;4.90;3.03;;;;;;;;;;5050318;28;20040;-77
2021/07/15 06:53:56;;;;;;;3.78;2.72;;;;;;;;;;5053940;28;20025;-76
2021/07/15 06:56:23;;;;;;;4.03;2.60;;;;;;;;;;5053905;28;20036;-77
2021/07/15 06:58:49;;;;;;;3.67;2.80;;;;;;;;;;5053650;28;20095;-77
2021/07/15 07:01:15;;;;;;;6.28;3.17;;;;;;;;;;5053556;28;20029;-76
2021/07/15 07:03:41;;;;;;;5.45;2.90;;;;;;;;;;5053649;28;20049;-77
2021/07/15 07:06:07;;;;;;;4.45;3.00;;;;;;;;;;5053468;28;20090;-76
2021/07/15 07:08:33;;;;;;;5.82;2.90;;;;;;;;;;5053320;28;20379;-77
2021/07/15 07:10:59;;;;;;;2.78;2.45;;;;;;;;;;5053535;28;20032;-77
2021/07/15 07:13:25;;;;;;;3.80;2.83;;;;;;;;;;5053679;28;20035;-76
2021/07/15 07:15:51;;;;;;;11.30;3.13;;;;;;;;;;5053805;28;20025;-76
2021/07/15 07:18:17;;;;;;;5.07;2.90;;;;;;;;;;5053618;28;20028;-77
2021/07/15 07:20:43;;;;;;;3.47;2.78;;;;;;;;;;5053547;28;20029;-76
2021/07/15 07:23:13;;;;;;;5.03;2.63;;;;;;;;;;5052578;28;20363;-77
2021/07/15 07:25:39;;;;;;;4.03;2.90;;;;;;;;;;5053485;28;20017;-77
2021/07/15 07:28:05;;;;;;;4.07;2.83;;;;;;;;;;5053243;28;20029;-76
2021/07/15 07:30:31;;;;;;;6.47;2.75;;;;;;;;;;5053313;28;20100;-77
2021/07/15 07:32:57;;;;;;;4.10;2.80;;;;;;;;;;5052950;28;20044;-77
2021/07/15 07:35:23;;;;;;;4.85;2.80;;;;;;;;;;5053355;28;20044;-77
2021/07/15 07:37:49;;;;;;;6.10;2.80;;;;;;;;;;5052996;28;20119;-77
2021/07/15 07:40:17;;;;;;;4.55;2.88;;;;;;;;;;5053117;28;20104;-77
2021/07/15 07:42:43;;;;;;;4.68;2.95;;;;;;;;;;5052860;28;20049;-78
2021/07/15 07:45:10;;;;;;;4.65;3.00;;;;;;;;;;5052995;28;20021;-77
2021/07/15 07:47:36;;;;;;;3.80;2.40;;;;;;;;;;5052924;28;20383;-77
2021/07/15 07:50:03;;;;;;;5.18;2.97;;;;;;;;;;5053049;28;20021;-77
2021/07/15 07:52:29;;;;;;;4.10;2.80;;;;;;;;;;5052359;28;20109;-77
2021/07/15 07:54:56;;;;;;;4.57;2.50;;;;;;;;;;5051428;28;20456;-78
2021/07/15 07:57:22;;;;;;;5.05;2.67;;;;;;;;;;5053044;28;20491;-77
2021/07/15 07:59:48;;;;;;;5.20;2.90;;;;;;;;;;5053044;28;20040;-76
2021/07/15 08:02:14;;;;;;;6.68;2.90;;;;;;;;;;5052076;28;20069;-77
2021/07/15 08:04:40;;;;;;;4.30;3.00;;;;;;;;;;5052295;28;20033;-77
2021/07/15 08:07:11;;;;;;;5.97;3.17;;;;;;;;;;5052545;28;20055;-76
2021/07/15 08:09:43;;;;;;;5.28;3.10;;;;;;;;;;5052677;28;20017;-78
2021/07/15 08:12:11;;;;;;;4.65;2.72;;;;;;;;;;5051904;28;20041;-77
2021/07/15 08:14:37;;;;;;;5.45;2.78;;;;;;;;;;5053065;28;20442;-78
2021/07/15 08:17:03;;;;;;;4.22;2.72;;;;;;;;;;5052377;28;20494;-78
2021/07/15 08:19:29;;;;;;;5.68;2.90;;;;;;;;;;5052545;28;20371;-76
2021/07/15 08:21:55;;;;;;;8.43;2.83;;;;;;;;;;5051724;28;20029;-77
2021/07/15 08:24:22;;;;;;;7.18;2.75;;;;;;;;;;5052477;28;20028;-77
2021/07/15 08:26:48;;;;;;;3.30;2.63;;;;;;;;;;5052071;28;20510;-77
2021/07/15 08:29:14;;;;;;;11.65;3.20;;;;;;;;;;5052437;28;20021;-77
2021/07/15 08:31:42;;;;;;;5.63;2.77;;;;;;;;;;5051806;28;20104;-77
2021/07/15 08:34:08;;;;;;;6.97;2.90;;;;;;;;;;5051670;28;20033;-77
2021/07/15 08:36:34;;;;;;;6.28;2.95;;;;;;;;;;5051967;28;20056;-75
2021/07/15 08:39:00;;;;;;;6.43;3.55;;;;;;;;;;5052120;28;20029;-78
2021/07/15 08:41:26;;;;;;;8.02;3.08;;;;;;;;;;5051704;28;20036;-77
2021/07/15 08:43:53;;;;;;;4.22;3.05;;;;;;;;;;5051766;28;20037;-77
2021/07/15 08:46:20;;;;;;;5.03;3.13;;;;;;;;;;5051603;28;20037;-78
2021/07/15 08:48:46;;;;;;;5.38;3.08;;;;;;;;;;5052052;28;20025;-76
2021/07/15 08:51:13;;;;;;;5.88;3.38;;;;;;;;;;5051876;28;20029;-77
2021/07/15 08:53:39;;;;;;;5.65;2.70;;;;;;;;;;5051082;28;20063;-78
2021/07/15 08:58:50;;;;;;;6.80;3.00;;;;;;;;;;5052132;28;20040;-77
2021/07/15 09:01:17;;;;;;;2.88;2.50;;;;;;;;;;5051757;28;20029;-77
2021/07/15 09:03:43;;;;;;;4.25;2.53;;;;;;;;;;5051379;28;20479;-77
2021/07/15 09:06:09;;;;;;;8.73;2.63;;;;;;;;;;5051285;28;20061;-77
2021/07/15 09:08:35;;;;;;;6.70;2.97;;;;;;;;;;5051002;28;20032;-78
2021/07/15 09:11:02;;;;;;;9.23;2.80;;;;;;;;;;5051380;28;20314;-77
2021/07/15 09:13:29;;;;;;;3.83;2.50;;;;;;;;;;5049818;28;20487;-76
2021/07/15 09:15:55;;;;;;;5.72;2.50;;;;;;;;;;5050903;28;20111;-77
2021/07/15 09:18:21;;;;;;;3.53;2.53;;;;;;;;;;5051316;28;20040;-77
2021/07/15 09:20:47;;;;;;;3.40;2.58;;;;;;;;;;5050924;28;20024;-77
2021/07/15 09:23:14;;;;;;;6.32;2.67;;;;;;;;;;5050413;28;20033;-77
2021/07/15 09:25:40;;;;;;;5.63;2.35;;;;;;;;;;5051138;28;20025;-76
2021/07/15 09:28:07;;;;;;;4.63;2.67;;;;;;;;;;5051051;28;20033;-76
2021/07/15 09:30:33;;;;;;;7.03;2.90;;;;;;;;;;5051132;28;20094;-78
2021/07/15 09:33:09;;;;;;;4.40;2.65;;;;;;;;;;5050214;28;20570;-77
2021/07/15 09:35:35;;;;;;;9.65;2.90;;;;;;;;;;5050927;28;20475;-76
2021/07/15 09:38:09;;;;;;;4.13;2.63;;;;;;;;;;5051033;28;20035;-78
2021/07/15 09:40:50;;;;;;;5.38;2.63;;;;;;;;;;5050929;28;20021;-78
2021/07/15 09:43:16;;;;;;;4.90;2.70;;;;;;;;;;5050573;28;20090;-78
2021/07/15 09:45:43;;;;;;;5.30;2.53;;;;;;;;;;5050907;28;20021;-78
2021/07/15 09:48:13;;;;;;;4.65;2.65;;;;;;;;;;5050752;28;20033;-78
2021/07/15 09:50:40;;;;;;;8.20;2.67;;;;;;;;;;5051027;28;20017;-78
2021/07/15 09:53:16;;;;;;;5.37;2.67;;;;;;;;;;5050162;28;20045;-76
2021/07/15 09:55:42;;;;;;;6.07;2.63;;;;;;;;;;5050838;28;20457;-77
2021/07/15 09:58:10;;;;;;;7.38;2.72;;;;;;;;;;5050062;28;20036;-78
2021/07/15 10:00:37;;;;;;;5.00;2.33;;;;;;;;;;5050593;28;20467;-76
2021/07/15 10:03:05;;;;;;;3.42;2.40;;;;;;;;;;5050319;28;20052;-78
2021/07/15 10:05:31;;;;;;;9.45;2.75;;;;;;;;;;5050182;28;20669;-78
2021/07/15 10:08:08;;;;;;;7.30;2.70;;;;;;;;;;5050418;28;20040;-78
2021/07/15 10:10:34;;;;;;;8.63;2.95;;;;;;;;;;5050625;28;20029;-77
2021/07/15 10:13:11;;;;;;;6.63;2.80;;;;;;;;;;5050470;28;20025;-78
2021/07/15 10:15:37;;;;;;;7.70;2.75;;;;;;;;;;5050279;28;20430;-79
2021/07/15 10:18:03;;;;;;;7.43;3.05;;;;;;;;;;5032172;28;20036;-79
2021/07/15 10:20:31;;;;;;;10.52;3.40;;;;;;;;;;5050318;28;20020;-78
2021/07/15 10:22:57;;;;;;;10.60;3.63;;;;;;;;;;5050401;28;20053;-78
2021/07/15 10:25:22;;;;;;;5.72;2.75;;;;;;;;;;5049468;28;20029;-79
2021/07/15 10:27:48;;;;;;;9.90;3.10;;;;;;;;;;5049416;28;20032;-78
2021/07/15 10:30:16;;;;;;;7.30;3.25;;;;;;;;;;5050107;28;20025;-79
2021/07/15 10:32:42;;;;;;;9.50;3.28;;;;;;;;;;5050070;28;20068;-79
2021/07/15 10:35:09;;;;;;;7.55;3.30;;;;;;;;;;5049420;28;20041;-79
2021/07/15 10:37:35;;;;;;;;;;;;;;;;;;5050601;28;20490;-80
2021/07/15 10:40:01;;;;;;;8.73;3.30;;;;;;;;;;5050048;28;19909;-79
2021/07/15 10:42:27;;;;;;;7.88;3.38;;;;;;;;;;5049926;28;20025;-79
2021/07/15 10:44:53;;;;;;;6.55;3.33;;;;;;;;;;5049396;28;20162;-79
2021/07/15 10:47:21;;;;;;;9.30;3.10;;;;;;;;;;5050073;28;20041;-79
2021/07/15 10:49:48;;;;;;;8.82;3.10;;;;;;;;;;5049847;28;20479;-79
2021/07/15 10:52:18;;;;;;;7.43;3.33;;;;;;;;;;5049936;28;20074;-79
2021/07/15 10:54:44;;;;;;;9.63;3.20;;;;;;;;;;5049544;28;20033;-78
2021/07/15 10:57:11;;;;;;;8.00;3.50;;;;;;;;;;5050502;28;20028;-78
2021/07/15 10:59:37;;;;;;;6.85;3.42;;;;;;;;;;5049694;28;20028;-79
2021/07/15 11:02:03;;;;;;;8.65;3.25;;;;;;;;;;5049816;28;20025;-79
2021/07/15 11:04:39;;;;;;;7.32;3.28;;;;;;;;;;5049423;28;20115;-79
2021/07/15 11:07:35;;;;;;;7.53;3.88;;;;;;;;;;5049755;28;20037;-78
2021/07/15 11:10:21;;;;;;;8.90;3.33;;;;;;;;;;5040933;28;20041;-79
2021/07/15 11:12:58;;;;;;;6.85;3.40;;;;;;;;;;5049601;28;20113;-78
2021/07/15 11:15:43;;;;;;;8.18;3.80;;;;;;;;;;5049560;28;20459;-79
2021/07/15 11:18:09;;;;;;;8.65;3.92;;;;;;;;;;5049876;28;20052;-78
2021/07/15 11:20:36;;;;;;;9.35;3.80;;;;;;;;;;5049240;28;20396;-80
2021/07/15 11:23:08;;;;;;;8.77;3.67;;;;;;;;;;5049702;28;20082;-79
2021/07/15 11:25:35;;;;;;;11.38;3.38;;;;;;;;;;5049347;28;20080;-79
2021/07/15 11:28:02;;;;;;;12.65;3.63;;;;;;;;;;5047856;28;20033;-80
2021/07/15 11:30:40;;;;;;;9.27;3.80;;;;;;;;;;5049360;28;20017;-80
2021/07/15 11:33:21;;;;;;;8.80;3.45;;;;;;;;;;5049314;28;20383;-78
2021/07/15 11:35:50;;;;;;;11.73;3.42;;;;;;;;;;5049119;28;20041;-79
2021/07/15 11:38:22;;;;;;;9.02;3.50;;;;;;;;;;5051096;28;20096;-80
2021/07/15 11:40:48;;;;;;;10.35;3.58;;;;;;;;;;5051735;28;20045;-80
2021/07/15 11:43:16;;;;;;;6.68;3.22;;;;;;;;;;5053217;28;20063;-80
2021/07/15 11:46:00;;;;;;;14.23;4.80;;;;;;;;;;5052833;28;20093;-80
2021/07/15 11:48:45;;;;;;;6.93;3.40;;;;;;;;;;5052471;28;20028;-80
2021/07/15 11:51:30;;;;;;;12.57;3.33;;;;;;;;;;5051614;28;20036;-80
2021/07/15 11:54:14;;;;;;;11.32;3.70;;;;;;;;;;5052901;28;20390;-79
2021/07/15 11:56:41;;;;;;;11.30;5.28;;;;;;;;;;5053044;28;20041;-79
2021/07/15 11:59:07;;;;;;;14.13;4.60;;;;;;;;;;5052759;28;20024;-80
2021/07/15 12:01:34;;;;;;;8.60;4.00;;;;;;;;;;5052778;28;20048;-80
2021/07/15 12:04:00;;;;;;;7.03;3.58;;;;;;;;;;5052972;28;20052;-79
2021/07/15 12:06:26;;;;;;;11.50;3.95;;;;;;;;;;5052253;28;20052;-79
2021/07/15 12:08:52;;;;;;;10.73;3.80;;;;;;;;;;5052293;28;20494;-80
2021/07/15 12:11:23;;;;;;;9.27;3.50;;;;;;;;;;5051304;28;20383;-80
2021/07/15 12:13:50;;;;;;;8.80;3.60;;;;;;;;;;5052469;28;20017;-80
2021/07/15 12:16:18;;;;;;;10.13;3.60;;;;;;;;;;5052285;28;20065;-79
2021/07/15 12:18:44;;;;;;;7.32;3.72;;;;;;;;;;5052135;28;20503;-80
2021/07/15 12:21:10;;;;;;;14.70;4.00;;;;;;;;;;5052623;28;20025;-80
2021/07/15 12:23:37;;;;;;;7.50;3.78;;;;;;;;;;5052351;28;20029;-80
2021/07/15 12:26:04;;;;;;;4.82;3.17;;;;;;;;;;5052233;28;20033;-80
2021/07/15 12:28:30;;;;;;;;;;;;;;;;;;5052837;28;20108;-80
2021/07/15 12:30:57;;;;;;;10.97;3.67;;;;;;;;;;5052081;28;20504;-80
2021/07/15 12:33:24;;;;;;;10.48;3.72;;;;;;;;;;5052275;28;20024;-79
2021/07/15 12:35:53;;;;;;;11.15;3.72;;;;;;;;;;5050492;28;20424;-80
2021/07/15 12:38:31;;;;;;;13.57;4.32;;;;;;;;;;5052103;28;20033;-80
2021/07/15 12:41:08;;;;;;;12.45;4.07;;;;;;;;;;5052276;28;20498;-80
2021/07/15 12:43:34;;;;;;;;;;;;;;;;;;5052518;28;20085;-80
2021/07/15 12:46:08;;;;;;;9.87;3.70;;;;;;;;;;5051860;28;20007;-80
2021/07/15 12:48:39;;;;;;;9.65;3.85;;;;;;;;;;5051598;28;20040;-80
2021/07/15 12:51:05;;;;;;;9.40;3.45;;;;;;;;;;5050168;28;20492;-80
2021/07/15 12:53:36;;;;;;;10.07;3.75;;;;;;;;;;5051869;28;20226;-80
2021/07/15 12:56:02;;;;;;;11.57;3.97;;;;;;;;;;5049781;28;20056;-80
2021/07/15 12:58:28;;;;;;;12.10;3.80;;;;;;;;;;5051828;28;20155;-80
2021/07/15 13:01:02;;;;;;;6.53;3.60;;;;;;;;;;5051706;28;20108;-80
2021/07/15 13:03:28;;;;;;;11.73;3.90;;;;;;;;;;5051343;28;20124;-80
2021/07/15 13:05:54;;;;;;;10.15;3.70;;;;;;;;;;5051389;28;20163;-80
2021/07/15 13:08:26;;;;;;;8.77;3.72;;;;;;;;;;5051308;28;20111;-79
2021/07/15 13:16:22;;;;;;;10.93;3.60;;;;;;;;;;5051224;28;20455;-80
2021/07/15 13:18:48;;;;;;;9.47;3.80;;;;;;;;;;5050982;28;20119;-79
2021/07/15 13:21:25;;;;;;;13.47;4.40;;;;;;;;;;5051274;28;20029;-80
2021/07/15 13:24:01;;;;;;;10.25;4.20;;;;;;;;;;5051294;28;20032;-80
2021/07/15 13:26:27;;;;;;;11.38;4.60;;;;;;;;;;5050665;28;20048;-80
2021/07/15 13:28:53;;;;;;;9.32;4.35;;;;;;;;;;5051107;28;20021;-80
2021/07/15 13:31:19;;;;;;;11.13;3.95;;;;;;;;;;5050798;28;20029;-81
2021/07/15 13:33:49;;;;;;;10.75;3.80;;;;;;;;;;5051255;28;20439;-80
2021/07/15 13:36:15;;;;;;;11.65;4.03;;;;;;;;;;5050896;28;20021;-81
2021/07/15 13:38:45;;;;;;;13.68;4.57;;;;;;;;;;5050967;28;20029;-81
2021/07/15 13:41:24;;;;;;;11.75;4.82;;;;;;;;;;5050791;28;20021;-81
2021/07/15 13:43:50;;;;;;;13.82;4.10;;;;;;;;;;5050856;28;20040;-81
2021/07/15 13:46:18;;;;;;;16.65;4.97;;;;;;;;;;5050617;28;20029;-80
2021/07/15 13:48:47;;;;;;;10.95;4.60;;;;;;;;;;5050921;28;20082;-81
2021/07/15 13:51:13;;;;;;;10.20;4.43;;;;;;;;;;5050638;28;20107;-81
2021/07/15 13:53:40;;;;;;;11.80;4.53;;;;;;;;;;5050638;28;20104;-82
2021/07/15 13:56:06;;;;;;;12.15;4.60;;;;;;;;;;5050409;28;20099;-80
2021/07/15 13:58:33;;;;;;;16.30;3.80;;;;;;;;;;5050097;28;20123;-80
2021/07/15 14:01:01;;;;;;;11.90;4.22;;;;;;;;;;5050317;28;20028;-81
2021/07/15 14:03:27;;;;;;;9.15;3.75;;;;;;;;;;5050232;28;20081;-81
2021/07/15 14:05:54;;;;;;;11.07;4.15;;;;;;;;;;5050336;28;20486;-81
2021/07/15 14:08:21;;;;;;;10.07;4.00;;;;;;;;;;5050071;28;20411;-80
2021/07/15 14:10:48;;;;;;;14.43;4.38;;;;;;;;;;5050201;28;20459;-80
2021/07/15 14:13:14;;;;;;;12.93;4.20;;;;;;;;;;5050472;28;20029;-80
2021/07/15 14:15:47;;;;;;;12.48;4.28;;;;;;;;;;5050729;28;20021;-81
2021/07/15 14:18:14;;;;;;;14.02;4.60;;;;;;;;;;5050405;28;20044;-81
2021/07/15 14:20:47;;;;;;;10.48;4.22;;;;;;;;;;5050343;28;20025;-80
2021/07/15 14:23:15;;;;;;;10.77;4.75;;;;;;;;;;5049859;28;20040;-80
2021/07/15 14:25:42;;;;;;;8.07;3.70;;;;;;;;;;5050006;28;20024;-81
2021/07/15 14:28:08;;;;;;;11.85;4.20;;;;;;;;;;5049787;28;20391;-81
2021/07/15 14:30:36;;;;;;;9.82;4.10;;;;;;;;;;5050191;28;20036;-80
2021/07/15 14:33:02;;;;;;;11.32;4.13;;;;;;;;;;5050276;28;20032;-80
2021/07/15 14:35:30;;;;;;;10.20;3.78;;;;;;;;;;5048739;28;20132;-81
2021/07/15 14:37:55;;;;;;;8.45;3.70;;;;;;;;;;5049440;28;20479;-81
2021/07/15 14:40:22;;;;;;;10.88;4.32;;;;;;;;;;5048810;28;20052;-81
2021/07/15 14:42:48;;;;;;;;;;;;;;;;;;5050399;28;20037;-81
2021/07/15 14:45:14;;;;;;;;;;;;;;;;;;5050791;28;19904;-80
2021/07/15 14:47:40;;;;;;;12.32;4.28;;;;;;;;;;5049815;28;20367;-81
2021/07/15 14:50:07;;;;;;;10.73;4.30;;;;;;;;;;5049782;28;20506;-81
2021/07/15 14:52:33;;;;;;;14.20;4.10;;;;;;;;;;5049495;28;20029;-82
2021/07/15 14:54:59;;;;;;;13.63;3.88;;;;;;;;;;5049921;28;20029;-82